sensor_id;sensor_type;location;lat;lon;timestamp;pressure;altitude;pressure_sealevel;temperature;humidity
49979;BME280;35869;50.990;6.962;2022-08-19T00:02:58;100965.22;;;20.64;69.91
49979;BME280;35869;50.990;6.962;2022-08-19T00:07:59;100968.09;;;20.61;69.59
49979;BME280;35869;50.990;6.962;2022-08-19T00:12:59;100968.38;;;20.58;69.62
49979;BME280;35869;50.990;6.962;2022-08-19T00:17:59;100960.56;;;20.57;69.91
49979;BME280;35869;50.990;6.962;2022-08-19T00:23:00;100959.66;;;20.46;69.71
49979;BME280;35869;50.990;6.962;2022-08-19T00:28:00;100964.44;;;20.41;70.66
49979;BME280;35869;50.990;6.962;2022-08-19T00:33:00;100974.53;;;20.36;71.15
49979;BME280;35869;50.990;6.962;2022-08-19T00:38:01;100967.31;;;20.38;70.78
49979;BME280;35869;50.990;6.962;2022-08-19T00:43:01;100961.22;;;20.38;70.22
49979;BME280;35869;50.990;6.962;2022-08-19T00:48:08;100962.22;;;20.26;70.43
49979;BME280;35869;50.990;6.962;2022-08-19T00:53:13;100964.88;;;20.14;71.22
49979;BME280;35869;50.990;6.962;2022-08-19T00:58:17;100967.97;;;20.19;70.97
49979;BME280;35869;50.990;6.962;2022-08-19T01:03:20;100965.13;;;20.11;71.25
49979;BME280;35869;50.990;6.962;2022-08-19T01:08:21;100970.66;;;20.08;71.68
49979;BME280;35869;50.990;6.962;2022-08-19T01:13:30;100971.84;;;20.04;71.36
49979;BME280;35869;50.990;6.962;2022-08-19T01:18:38;100969.47;;;20.01;71.61
49979;BME280;35869;50.990;6.962;2022-08-19T01:23:39;100967.88;;;19.98;71.61
49979;BME280;35869;50.990;6.962;2022-08-19T01:28:39;100959.88;;;19.89;71.78
49979;BME280;35869;50.990;6.962;2022-08-19T01:33:40;100951.25;;;19.87;72.49
49979;BME280;35869;50.990;6.962;2022-08-19T01:38:43;100957.00;;;19.81;71.71
49979;BME280;35869;50.990;6.962;2022-08-19T01:43:43;100954.63;;;19.78;72.91
49979;BME280;35869;50.990;6.962;2022-08-19T01:48:45;100953.88;;;19.76;72.30
49979;BME280;35869;50.990;6.962;2022-08-19T01:53:49;100932.44;;;19.69;72.87
49979;BME280;35869;50.990;6.962;2022-08-19T01:58:57;100932.09;;;19.62;73.11
49979;BME280;35869;50.990;6.962;2022-08-19T02:03:58;100942.41;;;19.65;73.65
49979;BME280;35869;50.990;6.962;2022-08-19T02:08:59;100955.69;;;19.64;73.93
49979;BME280;35869;50.990;6.962;2022-08-19T02:14:02;100960.50;;;19.59;73.86
49979;BME280;35869;50.990;6.962;2022-08-19T02:19:02;100956.28;;;19.56;73.79
49979;BME280;35869;50.990;6.962;2022-08-19T02:24:03;100949.56;;;19.52;74.27
49979;BME280;35869;50.990;6.962;2022-08-19T02:29:03;100957.09;;;19.45;74.17
49979;BME280;35869;50.990;6.962;2022-08-19T02:34:04;100956.41;;;19.43;74.43
49979;BME280;35869;50.990;6.962;2022-08-19T02:39:04;100967.06;;;19.42;73.65
49979;BME280;35869;50.990;6.962;2022-08-19T02:44:04;100964.16;;;19.34;74.86
49979;BME280;35869;50.990;6.962;2022-08-19T02:49:06;100973.03;;;19.33;75.22
49979;BME280;35869;50.990;6.962;2022-08-19T02:54:09;100982.38;;;19.26;75.35
49979;BME280;35869;50.990;6.962;2022-08-19T02:59:10;100978.78;;;19.27;75.67
49979;BME280;35869;50.990;6.962;2022-08-19T03:04:13;100976.38;;;19.24;75.63
49979;BME280;35869;50.990;6.962;2022-08-19T03:09:14;100978.41;;;19.20;74.86
49979;BME280;35869;50.990;6.962;2022-08-19T03:14:14;100973.13;;;19.20;75.28
49979;BME280;35869;50.990;6.962;2022-08-19T03:19:19;100975.06;;;19.18;74.88
49979;BME280;35869;50.990;6.962;2022-08-19T03:24:20;100974.56;;;19.13;74.93
49979;BME280;35869;50.990;6.962;2022-08-19T03:29:20;100982.59;;;19.11;74.79
49979;BME280;35869;50.990;6.962;2022-08-19T03:34:24;100991.56;;;19.09;75.20
49979;BME280;35869;50.990;6.962;2022-08-19T03:39:25;100988.31;;;19.05;75.87
49979;BME280;35869;50.990;6.962;2022-08-19T03:44:25;100987.13;;;19.09;74.50
49979;BME280;35869;50.990;6.962;2022-08-19T03:49:28;100991.53;;;18.98;76.33
49979;BME280;35869;50.990;6.962;2022-08-19T03:54:28;100993.31;;;18.97;76.56
49979;BME280;35869;50.990;6.962;2022-08-19T03:59:32;100996.66;;;18.99;75.84
49979;BME280;35869;50.990;6.962;2022-08-19T04:04:32;100998.34;;;18.89;76.43
49979;BME280;35869;50.990;6.962;2022-08-19T04:09:34;101001.69;;;18.91;76.59
49979;BME280;35869;50.990;6.962;2022-08-19T04:14:34;101005.03;;;18.93;75.33
49979;BME280;35869;50.990;6.962;2022-08-19T04:19:35;101003.69;;;18.87;75.66
49979;BME280;35869;50.990;6.962;2022-08-19T04:24:36;101015.31;;;18.85;75.98
49979;BME280;35869;50.990;6.962;2022-08-19T04:29:36;101004.16;;;18.81;76.62
49979;BME280;35869;50.990;6.962;2022-08-19T04:34:37;101005.63;;;18.85;76.22
49979;BME280;35869;50.990;6.962;2022-08-19T04:39:38;101019.13;;;18.81;76.53
49979;BME280;35869;50.990;6.962;2022-08-19T04:44:38;101018.16;;;18.82;76.68
49979;BME280;35869;50.990;6.962;2022-08-19T04:49:38;101019.75;;;18.84;76.18
49979;BME280;35869;50.990;6.962;2022-08-19T04:54:39;101020.78;;;18.82;76.68
49979;BME280;35869;50.990;6.962;2022-08-19T04:59:39;101030.41;;;18.83;78.10
49979;BME280;35869;50.990;6.962;2022-08-19T05:04:39;101044.72;;;18.79;76.06
49979;BME280;35869;50.990;6.962;2022-08-19T05:09:40;101044.47;;;18.71;75.96
49979;BME280;35869;50.990;6.962;2022-08-19T05:14:40;101044.03;;;18.77;76.05
49979;BME280;35869;50.990;6.962;2022-08-19T05:19:40;101049.56;;;18.85;75.68
49979;BME280;35869;50.990;6.962;2022-08-19T05:24:41;101055.47;;;18.76;74.81
49979;BME280;35869;50.990;6.962;2022-08-19T05:29:42;101058.66;;;18.92;77.20
49979;BME280;35869;50.990;6.962;2022-08-19T05:34:42;101059.00;;;18.87;76.79
49979;BME280;35869;50.990;6.962;2022-08-19T05:39:42;101056.88;;;18.92;77.85
49979;BME280;35869;50.990;6.962;2022-08-19T05:44:43;101064.19;;;18.89;79.83
49979;BME280;35869;50.990;6.962;2022-08-19T05:49:43;101066.56;;;18.92;77.13
49979;BME280;35869;50.990;6.962;2022-08-19T05:54:43;101072.97;;;19.01;78.51
49979;BME280;35869;50.990;6.962;2022-08-19T05:59:44;101066.88;;;19.00;79.18
49979;BME280;35869;50.990;6.962;2022-08-19T06:04:44;101074.53;;;19.03;79.85
49979;BME280;35869;50.990;6.962;2022-08-19T06:09:44;101064.94;;;19.02;75.75
49979;BME280;35869;50.990;6.962;2022-08-19T06:14:45;101058.03;;;19.12;79.00
49979;BME280;35869;50.990;6.962;2022-08-19T06:19:45;101048.81;;;19.07;78.80
49979;BME280;35869;50.990;6.962;2022-08-19T06:24:45;101056.84;;;19.16;82.24
49979;BME280;35869;50.990;6.962;2022-08-19T06:29:45;101059.13;;;19.21;80.87
49979;BME280;35869;50.990;6.962;2022-08-19T06:34:46;101057.63;;;19.30;80.21
49979;BME280;35869;50.990;6.962;2022-08-19T06:39:47;101054.16;;;19.29;79.08
49979;BME280;35869;50.990;6.962;2022-08-19T06:44:48;101052.25;;;19.42;82.50
49979;BME280;35869;50.990;6.962;2022-08-19T06:49:48;101055.72;;;19.43;81.57
49979;BME280;35869;50.990;6.962;2022-08-19T06:54:48;101058.84;;;19.48;80.73
49979;BME280;35869;50.990;6.962;2022-08-19T06:59:49;101068.81;;;19.56;79.98
49979;BME280;35869;50.990;6.962;2022-08-19T07:04:49;101076.91;;;19.65;81.21
49979;BME280;35869;50.990;6.962;2022-08-19T07:09:50;101073.66;;;19.73;82.39
49979;BME280;35869;50.990;6.962;2022-08-19T07:14:50;101079.16;;;19.81;78.98
49979;BME280;35869;50.990;6.962;2022-08-19T07:19:51;101086.25;;;19.92;81.99
49979;BME280;35869;50.990;6.962;2022-08-19T07:24:51;101081.00;;;20.03;80.56
49979;BME280;35869;50.990;6.962;2022-08-19T07:29:55;101088.44;;;20.09;79.75
49979;BME280;35869;50.990;6.962;2022-08-19T07:34:55;101097.31;;;20.19;80.07
49979;BME280;35869;50.990;6.962;2022-08-19T07:39:55;101100.44;;;20.24;80.50
49979;BME280;35869;50.990;6.962;2022-08-19T07:44:56;101111.13;;;20.23;80.50
49979;BME280;35869;50.990;6.962;2022-08-19T07:49:57;101113.84;;;20.44;79.09
49979;BME280;35869;50.990;6.962;2022-08-19T07:54:57;101111.47;;;20.52;79.48
49979;BME280;35869;50.990;6.962;2022-08-19T07:59:57;101122.88;;;20.53;79.17
49979;BME280;35869;50.990;6.962;2022-08-19T08:04:58;101128.75;;;20.56;79.68
49979;BME280;35869;50.990;6.962;2022-08-19T08:09:59;101121.28;;;20.61;79.87
49979;BME280;35869;50.990;6.962;2022-08-19T08:15:02;101132.81;;;20.71;79.85
49979;BME280;35869;50.990;6.962;2022-08-19T08:20:04;101131.09;;;20.82;79.34
49979;BME280;35869;50.990;6.962;2022-08-19T08:25:16;101133.47;;;20.96;77.52
49979;BME280;35869;50.990;6.962;2022-08-19T08:30:21;101132.13;;;21.01;77.63
49979;BME280;35869;50.990;6.962;2022-08-19T08:35:22;101128.13;;;21.07;77.21
49979;BME280;35869;50.990;6.962;2022-08-19T08:40:26;101130.59;;;21.20;79.98
49979;BME280;35869;50.990;6.962;2022-08-19T08:45:28;101125.69;;;21.15;78.28
49979;BME280;35869;50.990;6.962;2022-08-19T08:55:30;101121.25;;;21.48;77.53
49979;BME280;35869;50.990;6.962;2022-08-19T09:00:37;101119.63;;;21.56;78.08
49979;BME280;35869;50.990;6.962;2022-08-19T09:05:49;101120.97;;;21.93;76.75
49979;BME280;35869;50.990;6.962;2022-08-19T09:10:52;101124.25;;;22.06;76.44
49979;BME280;35869;50.990;6.962;2022-08-19T09:16:00;101121.41;;;22.19;74.83
49979;BME280;35869;50.990;6.962;2022-08-19T09:21:02;101115.19;;;22.29;74.12
49979;BME280;35869;50.990;6.962;2022-08-19T09:26:10;101119.84;;;22.56;73.27
49979;BME280;35869;50.990;6.962;2022-08-19T09:31:15;101111.53;;;22.71;72.71
49979;BME280;35869;50.990;6.962;2022-08-19T09:36:19;101109.84;;;22.79;71.40
49979;BME280;35869;50.990;6.962;2022-08-19T09:41:23;101117.44;;;23.03;71.39
49979;BME280;35869;50.990;6.962;2022-08-19T09:46:26;101122.75;;;23.13;69.66
49979;BME280;35869;50.990;6.962;2022-08-19T09:51:27;101119.25;;;23.41;68.49
49979;BME280;35869;50.990;6.962;2022-08-19T09:56:29;101111.25;;;23.61;67.92
49979;BME280;35869;50.990;6.962;2022-08-19T10:01:31;101113.59;;;23.83;67.05
49979;BME280;35869;50.990;6.962;2022-08-19T10:06:31;101111.94;;;24.19;66.45
49979;BME280;35869;50.990;6.962;2022-08-19T10:11:33;101105.09;;;24.17;63.89
49979;BME280;35869;50.990;6.962;2022-08-19T10:16:36;101103.41;;;24.53;62.59
49979;BME280;35869;50.990;6.962;2022-08-19T10:21:36;101087.94;;;24.66;61.85
49979;BME280;35869;50.990;6.962;2022-08-19T10:26:39;101086.44;;;24.82;61.34
49979;BME280;35869;50.990;6.962;2022-08-19T10:31:39;101094.88;;;25.13;60.58
49979;BME280;35869;50.990;6.962;2022-08-19T10:36:40;101085.72;;;25.77;60.01
49979;BME280;35869;50.990;6.962;2022-08-19T10:41:40;101089.41;;;26.10;60.47
49979;BME280;35869;50.990;6.962;2022-08-19T10:46:42;101084.91;;;25.59;59.18
49979;BME280;35869;50.990;6.962;2022-08-19T10:51:43;101069.78;;;25.85;58.17
49979;BME280;35869;50.990;6.962;2022-08-19T10:56:44;101076.19;;;26.00;57.57
49979;BME280;35869;50.990;6.962;2022-08-19T11:01:45;101063.75;;;26.51;58.13
49979;BME280;35869;50.990;6.962;2022-08-19T11:06:48;101059.16;;;26.36;56.88
49979;BME280;35869;50.990;6.962;2022-08-19T11:11:48;101065.25;;;26.12;55.56
49979;BME280;35869;50.990;6.962;2022-08-19T11:16:49;101062.78;;;26.77;54.35
49979;BME280;35869;50.990;6.962;2022-08-19T11:21:51;101068.09;;;26.85;54.24
49979;BME280;35869;50.990;6.962;2022-08-19T11:26:54;101066.22;;;26.53;53.32
49979;BME280;35869;50.990;6.962;2022-08-19T11:31:54;101055.22;;;26.48;53.03
49979;BME280;35869;50.990;6.962;2022-08-19T11:36:55;101056.91;;;26.65;53.04
49979;BME280;35869;50.990;6.962;2022-08-19T11:41:58;101058.75;;;26.56;52.86
49979;BME280;35869;50.990;6.962;2022-08-19T11:46:58;101056.47;;;26.86;53.02
49979;BME280;35869;50.990;6.962;2022-08-19T11:51:58;101054.00;;;26.34;52.16
49979;BME280;35869;50.990;6.962;2022-08-19T11:56:59;101051.91;;;26.54;52.39
49979;BME280;35869;50.990;6.962;2022-08-19T12:01:59;101053.25;;;26.58;51.42
49979;BME280;35869;50.990;6.962;2022-08-19T12:06:59;101045.75;;;26.53;51.39
49979;BME280;35869;50.990;6.962;2022-08-19T12:12:00;101041.63;;;27.08;50.97
49979;BME280;35869;50.990;6.962;2022-08-19T12:17:00;101044.13;;;27.26;49.63
49979;BME280;35869;50.990;6.962;2022-08-19T12:22:01;101043.16;;;27.10;50.48
49979;BME280;35869;50.990;6.962;2022-08-19T12:27:01;101042.41;;;27.74;50.67
49979;BME280;35869;50.990;6.962;2022-08-19T12:32:01;101036.97;;;27.90;50.23
49979;BME280;35869;50.990;6.962;2022-08-19T12:37:03;101030.66;;;27.83;49.82
49979;BME280;35869;50.990;6.962;2022-08-19T12:42:04;101020.66;;;27.77;48.94
49979;BME280;35869;50.990;6.962;2022-08-19T12:47:06;101019.59;;;28.25;48.26
49979;BME280;35869;50.990;6.962;2022-08-19T12:52:08;101015.06;;;28.26;49.94
49979;BME280;35869;50.990;6.962;2022-08-19T12:57:09;101013.34;;;28.41;48.71
49979;BME280;35869;50.990;6.962;2022-08-19T13:02:09;101022.91;;;28.04;47.63
49979;BME280;35869;50.990;6.962;2022-08-19T13:07:10;101007.88;;;28.03;47.51
49979;BME280;35869;50.990;6.962;2022-08-19T13:12:10;101004.09;;;28.21;46.84
49979;BME280;35869;50.990;6.962;2022-08-19T13:17:10;100994.44;;;28.42;45.85
49979;BME280;35869;50.990;6.962;2022-08-19T13:22:10;100985.72;;;28.94;46.08
49979;BME280;35869;50.990;6.962;2022-08-19T13:27:11;100981.31;;;29.16;46.08
49979;BME280;35869;50.990;6.962;2022-08-19T13:32:11;100989.31;;;29.02;45.60
49979;BME280;35869;50.990;6.962;2022-08-19T13:37:12;100983.97;;;28.79;46.00
49979;BME280;35869;50.990;6.962;2022-08-19T13:42:12;100969.75;;;29.01;45.55
49979;BME280;35869;50.990;6.962;2022-08-19T13:47:12;100972.56;;;28.85;45.11
49979;BME280;35869;50.990;6.962;2022-08-19T13:52:13;100968.00;;;28.71;43.82
49979;BME280;35869;50.990;6.962;2022-08-19T13:57:13;100960.84;;;29.53;41.93
49979;BME280;35869;50.990;6.962;2022-08-19T14:02:13;100967.72;;;28.42;42.97
49979;BME280;35869;50.990;6.962;2022-08-19T14:07:14;100962.66;;;28.71;43.61
49979;BME280;35869;50.990;6.962;2022-08-19T14:12:18;100958.75;;;28.58;43.40
49979;BME280;35869;50.990;6.962;2022-08-19T14:17:19;100960.81;;;28.71;43.83
49979;BME280;35869;50.990;6.962;2022-08-19T14:22:19;100967.34;;;28.68;44.79
49979;BME280;35869;50.990;6.962;2022-08-19T14:27:19;100960.16;;;29.07;43.47
49979;BME280;35869;50.990;6.962;2022-08-19T14:32:19;100973.03;;;28.88;44.00
49979;BME280;35869;50.990;6.962;2022-08-19T14:37:20;100972.63;;;28.77;44.24
49979;BME280;35869;50.990;6.962;2022-08-19T14:42:20;100971.06;;;28.67;44.21
49979;BME280;35869;50.990;6.962;2022-08-19T14:47:21;100979.91;;;29.06;43.20
49979;BME280;35869;50.990;6.962;2022-08-19T14:52:21;100979.81;;;28.99;42.01
49979;BME280;35869;50.990;6.962;2022-08-19T14:57:21;100974.91;;;28.42;42.81
49979;BME280;35869;50.990;6.962;2022-08-19T15:02:22;100973.25;;;28.79;42.49
49979;BME280;35869;50.990;6.962;2022-08-19T15:07:22;100975.78;;;28.80;42.29
49979;BME280;35869;50.990;6.962;2022-08-19T15:12:22;100978.78;;;28.62;42.42
49979;BME280;35869;50.990;6.962;2022-08-19T15:17:23;100982.94;;;28.65;42.76
49979;BME280;35869;50.990;6.962;2022-08-19T15:22:23;100980.56;;;28.47;41.21
49979;BME280;35869;50.990;6.962;2022-08-19T15:27:23;100986.38;;;28.51;41.11
49979;BME280;35869;50.990;6.962;2022-08-19T15:32:23;100992.56;;;28.20;41.86
49979;BME280;35869;50.990;6.962;2022-08-19T15:37:24;100994.81;;;28.39;40.22
49979;BME280;35869;50.990;6.962;2022-08-19T15:42:24;101007.38;;;28.31;41.76
49979;BME280;35869;50.990;6.962;2022-08-19T15:47:24;101007.69;;;28.05;41.57
49979;BME280;35869;50.990;6.962;2022-08-19T15:52:24;101014.50;;;28.15;41.27
49979;BME280;35869;50.990;6.962;2022-08-19T15:57:25;101007.75;;;28.20;42.06
49979;BME280;35869;50.990;6.962;2022-08-19T16:02:26;100997.44;;;28.16;42.32
49979;BME280;35869;50.990;6.962;2022-08-19T16:07:27;101009.56;;;27.96;42.38
49979;BME280;35869;50.990;6.962;2022-08-19T16:12:27;101012.91;;;27.98;42.47
49979;BME280;35869;50.990;6.962;2022-08-19T16:17:28;101017.88;;;27.62;43.89
49979;BME280;35869;50.990;6.962;2022-08-19T16:22:32;101033.38;;;27.58;44.36
49979;BME280;35869;50.990;6.962;2022-08-19T16:27:34;101035.44;;;27.32;45.32
49979;BME280;35869;50.990;6.962;2022-08-19T16:32:34;101032.56;;;27.58;44.52
49979;BME280;35869;50.990;6.962;2022-08-19T16:37:34;101034.41;;;27.49;45.82
49979;BME280;35869;50.990;6.962;2022-08-19T16:42:34;101037.13;;;27.17;45.76
49979;BME280;35869;50.990;6.962;2022-08-19T16:47:35;101037.13;;;27.25;46.24
49979;BME280;35869;50.990;6.962;2022-08-19T16:52:35;101022.44;;;27.13;46.22
49979;BME280;35869;50.990;6.962;2022-08-19T16:57:36;101037.63;;;27.12;46.46
49979;BME280;35869;50.990;6.962;2022-08-19T17:02:36;101027.78;;;26.88;47.38
49979;BME280;35869;50.990;6.962;2022-08-19T17:07:36;101036.63;;;26.80;47.69
49979;BME280;35869;50.990;6.962;2022-08-19T17:12:36;101038.59;;;26.78;47.92
49979;BME280;35869;50.990;6.962;2022-08-19T17:17:37;101030.44;;;26.64;48.05
49979;BME280;35869;50.990;6.962;2022-08-19T17:22:37;101036.78;;;26.63;48.21
49979;BME280;35869;50.990;6.962;2022-08-19T17:27:37;101034.75;;;26.56;48.74
49979;BME280;35869;50.990;6.962;2022-08-19T17:32:37;101037.75;;;26.53;49.40
49979;BME280;35869;50.990;6.962;2022-08-19T17:37:38;101032.59;;;26.52;49.38
49979;BME280;35869;50.990;6.962;2022-08-19T17:42:38;101031.88;;;26.42;49.87
49979;BME280;35869;50.990;6.962;2022-08-19T17:47:38;101031.69;;;26.35;50.20
49979;BME280;35869;50.990;6.962;2022-08-19T17:52:39;101034.66;;;26.32;50.24
49979;BME280;35869;50.990;6.962;2022-08-19T17:57:39;101033.00;;;26.31;50.43
49979;BME280;35869;50.990;6.962;2022-08-19T18:02:48;101032.28;;;26.21;50.92
49979;BME280;35869;50.990;6.962;2022-08-19T18:07:49;101037.25;;;26.08;51.64
49979;BME280;35869;50.990;6.962;2022-08-19T18:12:49;101037.06;;;26.01;52.03
49979;BME280;35869;50.990;6.962;2022-08-19T18:17:50;101044.84;;;25.94;51.94
49979;BME280;35869;50.990;6.962;2022-08-19T18:22:50;101039.84;;;25.91;52.31
49979;BME280;35869;50.990;6.962;2022-08-19T18:27:53;101041.84;;;25.89;52.32
49979;BME280;35869;50.990;6.962;2022-08-19T18:32:53;101042.19;;;25.86;52.23
49979;BME280;35869;50.990;6.962;2022-08-19T18:37:55;101041.69;;;25.65;53.67
49979;BME280;35869;50.990;6.962;2022-08-19T18:42:56;101040.31;;;25.61;53.49
49979;BME280;35869;50.990;6.962;2022-08-19T18:47:56;101042.63;;;25.56;53.28
49979;BME280;35869;50.990;6.962;2022-08-19T18:52:57;101044.22;;;25.40;54.38
49979;BME280;35869;50.990;6.962;2022-08-19T18:57:57;101044.31;;;25.31;54.35
49979;BME280;35869;50.990;6.962;2022-08-19T19:02:57;101049.47;;;25.32;53.50
49979;BME280;35869;50.990;6.962;2022-08-19T19:07:58;101055.03;;;25.21;53.84
49979;BME280;35869;50.990;6.962;2022-08-19T19:12:58;101078.31;;;25.19;54.33
49979;BME280;35869;50.990;6.962;2022-08-19T19:17:58;101084.56;;;25.10;54.36
49979;BME280;35869;50.990;6.962;2022-08-19T19:22:58;101092.13;;;25.05;54.53
49979;BME280;35869;50.990;6.962;2022-08-19T19:27:59;101089.97;;;24.90;54.63
49979;BME280;35869;50.990;6.962;2022-08-19T19:32:59;101093.25;;;24.84;55.39
49979;BME280;35869;50.990;6.962;2022-08-19T19:38:00;101107.28;;;24.59;57.05
49979;BME280;35869;50.990;6.962;2022-08-19T19:43:00;101119.19;;;24.55;58.56
49979;BME280;35869;50.990;6.962;2022-08-19T19:48:00;101111.94;;;24.57;58.11
49979;BME280;35869;50.990;6.962;2022-08-19T19:53:00;101108.41;;;24.56;57.45
49979;BME280;35869;50.990;6.962;2022-08-19T19:58:01;101108.47;;;24.46;59.19
49979;BME280;35869;50.990;6.962;2022-08-19T20:03:02;101127.75;;;24.49;58.61
49979;BME280;35869;50.990;6.962;2022-08-19T20:08:03;101129.34;;;24.41;58.09
49979;BME280;35869;50.990;6.962;2022-08-19T20:13:04;101131.47;;;24.28;59.92
49979;BME280;35869;50.990;6.962;2022-08-19T20:18:04;101155.16;;;24.12;61.43
49979;BME280;35869;50.990;6.962;2022-08-19T20:23:05;101159.34;;;24.14;61.55
49979;BME280;35869;50.990;6.962;2022-08-19T20:28:05;101160.25;;;23.96;62.96
49979;BME280;35869;50.990;6.962;2022-08-19T20:33:06;101164.69;;;24.05;61.74
49979;BME280;35869;50.990;6.962;2022-08-19T20:38:06;101165.41;;;23.97;63.62
49979;BME280;35869;50.990;6.962;2022-08-19T20:43:09;101175.75;;;23.90;63.74
49979;BME280;35869;50.990;6.962;2022-08-19T20:48:09;101169.78;;;23.88;63.38
49979;BME280;35869;50.990;6.962;2022-08-19T20:53:13;101172.69;;;23.85;62.49
49979;BME280;35869;50.990;6.962;2022-08-19T20:58:16;101182.63;;;23.74;63.63
49979;BME280;35869;50.990;6.962;2022-08-19T21:03:19;101182.91;;;23.80;64.35
49979;BME280;35869;50.990;6.962;2022-08-19T21:08:21;101183.09;;;23.69;65.80
49979;BME280;35869;50.990;6.962;2022-08-19T21:13:22;101187.09;;;23.54;68.62
49979;BME280;35869;50.990;6.962;2022-08-19T21:18:23;101191.88;;;23.40;67.50
49979;BME280;35869;50.990;6.962;2022-08-19T21:23:26;101185.16;;;23.36;69.23
49979;BME280;35869;50.990;6.962;2022-08-19T21:28:27;101185.84;;;23.19;69.79
49979;BME280;35869;50.990;6.962;2022-08-19T21:33:27;101186.69;;;23.29;68.74
49979;BME280;35869;50.990;6.962;2022-08-19T21:38:28;101187.38;;;23.31;67.10
49979;BME280;35869;50.990;6.962;2022-08-19T21:43:28;101185.69;;;23.21;69.15
49979;BME280;35869;50.990;6.962;2022-08-19T21:48:28;101183.88;;;23.21;68.25
49979;BME280;35869;50.990;6.962;2022-08-19T21:53:28;101181.22;;;23.11;70.66
49979;BME280;35869;50.990;6.962;2022-08-19T21:58:29;101173.81;;;23.15;69.78
49979;BME280;35869;50.990;6.962;2022-08-19T22:03:29;101184.28;;;23.07;68.95
49979;BME280;35869;50.990;6.962;2022-08-19T22:08:29;101191.94;;;23.10;68.56
49979;BME280;35869;50.990;6.962;2022-08-19T22:13:33;101191.81;;;23.02;68.62
49979;BME280;35869;50.990;6.962;2022-08-19T22:18:34;101196.97;;;22.94;71.64
49979;BME280;35869;50.990;6.962;2022-08-19T22:23:34;101189.44;;;22.99;70.42
49979;BME280;35869;50.990;6.962;2022-08-19T22:28:34;101195.00;;;22.96;69.14
49979;BME280;35869;50.990;6.962;2022-08-19T22:33:35;101196.53;;;22.88;69.25
49979;BME280;35869;50.990;6.962;2022-08-19T22:38:35;101200.25;;;22.86;69.94
49979;BME280;35869;50.990;6.962;2022-08-19T22:43:36;101199.84;;;22.81;70.68
49979;BME280;35869;50.990;6.962;2022-08-19T22:48:36;101197.69;;;22.75;72.00
49979;BME280;35869;50.990;6.962;2022-08-19T22:53:40;101213.31;;;22.68;73.93
49979;BME280;35869;50.990;6.962;2022-08-19T22:58:41;101203.88;;;22.75;72.89
49979;BME280;35869;50.990;6.962;2022-08-19T23:03:41;101200.50;;;22.73;71.26
49979;BME280;35869;50.990;6.962;2022-08-19T23:08:42;101197.16;;;22.71;72.51
49979;BME280;35869;50.990;6.962;2022-08-19T23:13:42;101195.59;;;22.59;73.53
49979;BME280;35869;50.990;6.962;2022-08-19T23:18:42;101202.72;;;22.68;72.96
49979;BME280;35869;50.990;6.962;2022-08-19T23:23:43;101197.16;;;22.71;72.88
49979;BME280;35869;50.990;6.962;2022-08-19T23:28:43;101205.19;;;22.60;73.57
49979;BME280;35869;50.990;6.962;2022-08-19T23:33:43;101192.75;;;22.51;73.82
49979;BME280;35869;50.990;6.962;2022-08-19T23:38:45;101201.66;;;22.50;72.18
49979;BME280;35869;50.990;6.962;2022-08-19T23:43:46;101202.81;;;22.57;74.01
49979;BME280;35869;50.990;6.962;2022-08-19T23:48:47;101197.09;;;22.52;74.47
49979;BME280;35869;50.990;6.962;2022-08-19T23:53:47;101192.34;;;22.46;74.17
49979;BME280;35869;50.990;6.962;2022-08-19T23:58:47;101190.03;;;22.31;75.63
